sensor_id;sensor_type;location;lat;lon;timestamp;P1;durP1;ratioP1;P2;durP2;ratioP2
51226;SDS011;42714;48.260;10.980;2023-10-19T00:02:22;82.0;;;35.5;;
51226;SDS011;42714;48.260;10.980;2023-10-19T00:07:22;77.0;;;34.6;;
51226;SDS011;42714;48.260;10.980;2023-10-19T00:12:22;66.5;;;32.2;;
51226;SDS011;42714;48.260;10.980;2023-10-19T00:17:22;66.0;;;32.2;;
51226;SDS011;42714;48.260;10.980;2023-10-19T00:22:22;83.1;;;35.7;;
51226;SDS011;42714;48.260;10.980;2023-10-19T00:27:22;79.7;;;35.1;;
51226;SDS011;42714;48.260;10.980;2023-10-19T00:32:22;66.8;;;32.2;;
51226;SDS011;42714;48.260;10.980;2023-10-19T00:37:22;71.6;;;33.5;;
51226;SDS011;42714;48.260;10.980;2023-10-19T00:42:22;78.4;;;34.4;;
51226;SDS011;42714;48.260;10.980;2023-10-19T00:47:22;69.8;;;32.4;;
51226;SDS011;42714;48.260;10.980;2023-10-19T00:52:22;74.7;;;33.5;;
51226;SDS011;42714;48.260;10.980;2023-10-19T00:57:22;68.9;;;33.4;;
51226;SDS011;42714;48.260;10.980;2023-10-19T01:02:22;85.1;;;35.1;;
51226;SDS011;42714;48.260;10.980;2023-10-19T01:07:22;75.5;;;33.5;;
51226;SDS011;42714;48.260;10.980;2023-10-19T01:12:23;85.7;;;36.9;;
51226;SDS011;42714;48.260;10.980;2023-10-19T01:17:22;84.8;;;35.6;;
51226;SDS011;42714;48.260;10.980;2023-10-19T01:22:22;77.3;;;34.3;;
51226;SDS011;42714;48.260;10.980;2023-10-19T01:27:22;72.7;;;33.7;;
51226;SDS011;42714;48.260;10.980;2023-10-19T01:32:22;69.8;;;31.3;;
51226;SDS011;42714;48.260;10.980;2023-10-19T01:37:22;74.1;;;30.8;;
51226;SDS011;42714;48.260;10.980;2023-10-19T01:42:22;74.2;;;33.2;;
51226;SDS011;42714;48.260;10.980;2023-10-19T01:47:22;68.7;;;32.3;;
51226;SDS011;42714;48.260;10.980;2023-10-19T01:52:22;62.5;;;31.0;;
51226;SDS011;42714;48.260;10.980;2023-10-19T01:57:22;69.7;;;30.8;;
51226;SDS011;42714;48.260;10.980;2023-10-19T02:02:22;75.8;;;32.8;;
51226;SDS011;42714;48.260;10.980;2023-10-19T02:07:22;67.6;;;32.0;;
51226;SDS011;42714;48.260;10.980;2023-10-19T02:12:22;75.1;;;33.3;;
51226;SDS011;42714;48.260;10.980;2023-10-19T02:17:22;81.4;;;34.8;;
51226;SDS011;42714;48.260;10.980;2023-10-19T02:22:22;87.4;;;35.7;;
51226;SDS011;42714;48.260;10.980;2023-10-19T02:27:22;87.5;;;33.5;;
51226;SDS011;42714;48.260;10.980;2023-10-19T02:32:22;87.9;;;35.4;;
51226;SDS011;42714;48.260;10.980;2023-10-19T02:37:22;91.8;;;35.0;;
51226;SDS011;42714;48.260;10.980;2023-10-19T02:42:22;80.9;;;35.2;;
51226;SDS011;42714;48.260;10.980;2023-10-19T02:47:22;85.1;;;35.3;;
51226;SDS011;42714;48.260;10.980;2023-10-19T02:52:22;81.8;;;35.8;;
51226;SDS011;42714;48.260;10.980;2023-10-19T02:57:22;76.4;;;32.8;;
51226;SDS011;42714;48.260;10.980;2023-10-19T03:02:22;87.1;;;35.2;;
51226;SDS011;42714;48.260;10.980;2023-10-19T03:07:22;62.9;;;29.7;;
51226;SDS011;42714;48.260;10.980;2023-10-19T03:12:22;66.7;;;30.3;;
51226;SDS011;42714;48.260;10.980;2023-10-19T03:17:22;62.0;;;29.4;;
51226;SDS011;42714;48.260;10.980;2023-10-19T03:22:22;60.8;;;29.2;;
51226;SDS011;42714;48.260;10.980;2023-10-19T03:27:22;64.8;;;29.7;;
51226;SDS011;42714;48.260;10.980;2023-10-19T03:32:23;60.0;;;29.2;;
51226;SDS011;42714;48.260;10.980;2023-10-19T03:37:22;63.8;;;29.3;;
51226;SDS011;42714;48.260;10.980;2023-10-19T03:42:22;59.8;;;28.9;;
51226;SDS011;42714;48.260;10.980;2023-10-19T03:47:22;60.9;;;28.0;;
51226;SDS011;42714;48.260;10.980;2023-10-19T03:52:22;58.0;;;28.0;;
51226;SDS011;42714;48.260;10.980;2023-10-19T03:57:22;64.2;;;29.8;;
51226;SDS011;42714;48.260;10.980;2023-10-19T04:02:23;63.2;;;28.8;;
51226;SDS011;42714;48.260;10.980;2023-10-19T04:07:22;59.3;;;28.7;;
51226;SDS011;42714;48.260;10.980;2023-10-19T04:12:25;57.3;;;28.2;;
51226;SDS011;42714;48.260;10.980;2023-10-19T04:17:22;61.6;;;29.6;;
51226;SDS011;42714;48.260;10.980;2023-10-19T04:22:22;59.6;;;29.0;;
51226;SDS011;42714;48.260;10.980;2023-10-19T04:27:22;59.9;;;30.0;;
51226;SDS011;42714;48.260;10.980;2023-10-19T04:32:22;58.8;;;29.0;;
51226;SDS011;42714;48.260;10.980;2023-10-19T04:37:22;56.1;;;28.5;;
51226;SDS011;42714;48.260;10.980;2023-10-19T04:42:22;58.6;;;30.1;;
51226;SDS011;42714;48.260;10.980;2023-10-19T04:47:22;59.8;;;29.5;;
51226;SDS011;42714;48.260;10.980;2023-10-19T04:52:22;64.2;;;28.6;;
51226;SDS011;42714;48.260;10.980;2023-10-19T04:57:22;61.6;;;29.6;;
51226;SDS011;42714;48.260;10.980;2023-10-19T05:02:22;61.1;;;31.1;;
51226;SDS011;42714;48.260;10.980;2023-10-19T05:07:22;57.3;;;29.5;;
51226;SDS011;42714;48.260;10.980;2023-10-19T05:12:22;59.0;;;30.8;;
51226;SDS011;42714;48.260;10.980;2023-10-19T05:17:22;59.3;;;31.4;;
51226;SDS011;42714;48.260;10.980;2023-10-19T05:22:23;51.7;;;29.4;;
51226;SDS011;42714;48.260;10.980;2023-10-19T05:27:22;59.7;;;30.5;;
51226;SDS011;42714;48.260;10.980;2023-10-19T05:32:22;57.9;;;30.8;;
51226;SDS011;42714;48.260;10.980;2023-10-19T05:37:23;59.8;;;30.4;;
51226;SDS011;42714;48.260;10.980;2023-10-19T05:42:22;55.0;;;29.9;;
51226;SDS011;42714;48.260;10.980;2023-10-19T05:47:22;52.6;;;27.2;;
51226;SDS011;42714;48.260;10.980;2023-10-19T05:52:22;48.7;;;26.4;;
51226;SDS011;42714;48.260;10.980;2023-10-19T05:57:22;57.4;;;27.6;;
51226;SDS011;42714;48.260;10.980;2023-10-19T06:02:22;44.4;;;25.5;;
51226;SDS011;42714;48.260;10.980;2023-10-19T06:07:22;48.4;;;26.7;;
51226;SDS011;42714;48.260;10.980;2023-10-19T06:12:22;40.3;;;22.9;;
51226;SDS011;42714;48.260;10.980;2023-10-19T06:17:22;40.4;;;23.4;;
51226;SDS011;42714;48.260;10.980;2023-10-19T06:22:22;39.0;;;22.4;;
51226;SDS011;42714;48.260;10.980;2023-10-19T06:27:22;38.1;;;22.5;;
51226;SDS011;42714;48.260;10.980;2023-10-19T06:32:22;31.8;;;19.5;;
51226;SDS011;42714;48.260;10.980;2023-10-19T06:37:22;31.8;;;17.3;;
51226;SDS011;42714;48.260;10.980;2023-10-19T06:42:22;29.7;;;16.2;;
51226;SDS011;42714;48.260;10.980;2023-10-19T06:47:22;21.0;;;13.1;;
51226;SDS011;42714;48.260;10.980;2023-10-19T06:52:22;21.3;;;12.6;;
51226;SDS011;42714;48.260;10.980;2023-10-19T06:57:22;17.2;;;11.0;;
51226;SDS011;42714;48.260;10.980;2023-10-19T07:02:22;21.0;;;10.8;;
51226;SDS011;42714;48.260;10.980;2023-10-19T07:07:22;20.5;;;11.0;;
51226;SDS011;42714;48.260;10.980;2023-10-19T07:12:22;17.7;;;10.7;;
51226;SDS011;42714;48.260;10.980;2023-10-19T07:17:22;21.6;;;11.0;;
51226;SDS011;42714;48.260;10.980;2023-10-19T07:22:22;17.1;;;11.1;;
51226;SDS011;42714;48.260;10.980;2023-10-19T07:27:22;15.5;;;10.1;;
51226;SDS011;42714;48.260;10.980;2023-10-19T07:32:22;16.9;;;11.1;;
51226;SDS011;42714;48.260;10.980;2023-10-19T07:37:22;15.7;;;11.7;;
51226;SDS011;42714;48.260;10.980;2023-10-19T07:42:23;16.8;;;10.7;;
51226;SDS011;42714;48.260;10.980;2023-10-19T07:47:22;17.5;;;10.0;;
51226;SDS011;42714;48.260;10.980;2023-10-19T07:52:22;13.9;;;9.4;;
51226;SDS011;42714;48.260;10.980;2023-10-19T07:57:22;19.8;;;9.8;;
51226;SDS011;42714;48.260;10.980;2023-10-19T08:02:22;15.9;;;9.4;;
51226;SDS011;42714;48.260;10.980;2023-10-19T08:07:22;16.3;;;9.5;;
51226;SDS011;42714;48.260;10.980;2023-10-19T08:12:22;16.9;;;9.1;;
51226;SDS011;42714;48.260;10.980;2023-10-19T08:17:22;13.2;;;7.9;;
51226;SDS011;42714;48.260;10.980;2023-10-19T08:22:23;15.6;;;8.6;;
51226;SDS011;42714;48.260;10.980;2023-10-19T08:27:22;15.6;;;10.3;;
51226;SDS011;42714;48.260;10.980;2023-10-19T08:32:22;11.0;;;7.0;;
51226;SDS011;42714;48.260;10.980;2023-10-19T08:37:22;18.6;;;8.8;;
51226;SDS011;42714;48.260;10.980;2023-10-19T08:42:23;12.5;;;8.1;;
51226;SDS011;42714;48.260;10.980;2023-10-19T08:47:22;14.5;;;6.0;;
51226;SDS011;42714;48.260;10.980;2023-10-19T08:52:22;10.4;;;5.2;;
51226;SDS011;42714;48.260;10.980;2023-10-19T08:57:23;12.3;;;5.0;;
51226;SDS011;42714;48.260;10.980;2023-10-19T09:02:22;13.4;;;5.4;;
51226;SDS011;42714;48.260;10.980;2023-10-19T09:07:23;9.6;;;4.8;;
51226;SDS011;42714;48.260;10.980;2023-10-19T09:12:22;16.0;;;8.1;;
51226;SDS011;42714;48.260;10.980;2023-10-19T09:22:22;15.7;;;7.3;;
51226;SDS011;42714;48.260;10.980;2023-10-19T09:27:22;13.0;;;6.3;;
51226;SDS011;42714;48.260;10.980;2023-10-19T09:32:23;21.6;;;9.4;;
51226;SDS011;42714;48.260;10.980;2023-10-19T09:37:23;15.5;;;8.1;;
51226;SDS011;42714;48.260;10.980;2023-10-19T09:42:23;11.0;;;5.5;;
51226;SDS011;42714;48.260;10.980;2023-10-19T09:47:26;12.7;;;6.4;;
51226;SDS011;42714;48.260;10.980;2023-10-19T09:52:23;16.9;;;6.6;;
51226;SDS011;42714;48.260;10.980;2023-10-19T09:57:26;13.5;;;6.1;;
51226;SDS011;42714;48.260;10.980;2023-10-19T10:02:23;8.8;;;5.6;;
51226;SDS011;42714;48.260;10.980;2023-10-19T10:07:23;10.7;;;5.4;;
51226;SDS011;42714;48.260;10.980;2023-10-19T10:12:23;17.1;;;6.7;;
51226;SDS011;42714;48.260;10.980;2023-10-19T10:17:23;13.8;;;6.6;;
51226;SDS011;42714;48.260;10.980;2023-10-19T10:22:23;9.3;;;4.3;;
51226;SDS011;42714;48.260;10.980;2023-10-19T10:27:23;12.6;;;5.8;;
51226;SDS011;42714;48.260;10.980;2023-10-19T10:32:42;12.0;;;5.9;;
51226;SDS011;42714;48.260;10.980;2023-10-19T10:37:23;15.0;;;8.1;;
51226;SDS011;42714;48.260;10.980;2023-10-19T10:42:23;16.1;;;6.8;;
51226;SDS011;42714;48.260;10.980;2023-10-19T10:47:23;23.8;;;10.2;;
51226;SDS011;42714;48.260;10.980;2023-10-19T10:52:23;18.2;;;5.6;;
51226;SDS011;42714;48.260;10.980;2023-10-19T10:57:23;13.3;;;4.3;;
51226;SDS011;42714;48.260;10.980;2023-10-19T11:02:23;10.6;;;4.5;;
51226;SDS011;42714;48.260;10.980;2023-10-19T11:07:23;18.2;;;7.0;;
51226;SDS011;42714;48.260;10.980;2023-10-19T11:12:23;14.3;;;5.9;;
51226;SDS011;42714;48.260;10.980;2023-10-19T11:17:23;12.9;;;4.7;;
51226;SDS011;42714;48.260;10.980;2023-10-19T11:22:23;11.5;;;4.7;;
51226;SDS011;42714;48.260;10.980;2023-10-19T11:27:23;9.7;;;4.1;;
51226;SDS011;42714;48.260;10.980;2023-10-19T11:32:23;13.4;;;4.8;;
51226;SDS011;42714;48.260;10.980;2023-10-19T11:37:23;10.0;;;3.0;;
51226;SDS011;42714;48.260;10.980;2023-10-19T11:42:23;7.7;;;3.7;;
51226;SDS011;42714;48.260;10.980;2023-10-19T11:47:23;6.3;;;3.1;;
51226;SDS011;42714;48.260;10.980;2023-10-19T11:52:23;8.5;;;2.9;;
51226;SDS011;42714;48.260;10.980;2023-10-19T11:57:23;7.7;;;2.9;;
51226;SDS011;42714;48.260;10.980;2023-10-19T12:02:23;10.7;;;3.5;;
51226;SDS011;42714;48.260;10.980;2023-10-19T12:07:23;12.7;;;4.3;;
51226;SDS011;42714;48.260;10.980;2023-10-19T12:12:23;9.6;;;2.9;;
51226;SDS011;42714;48.260;10.980;2023-10-19T12:17:23;11.4;;;3.1;;
51226;SDS011;42714;48.260;10.980;2023-10-19T12:22:23;7.6;;;1.9;;
51226;SDS011;42714;48.260;10.980;2023-10-19T12:27:23;8.1;;;1.9;;
51226;SDS011;42714;48.260;10.980;2023-10-19T12:32:24;8.3;;;2.7;;
51226;SDS011;42714;48.260;10.980;2023-10-19T12:37:23;9.2;;;2.3;;
51226;SDS011;42714;48.260;10.980;2023-10-19T12:42:23;4.2;;;1.7;;
51226;SDS011;42714;48.260;10.980;2023-10-19T12:47:23;8.2;;;2.0;;
51226;SDS011;42714;48.260;10.980;2023-10-19T12:52:23;4.0;;;1.8;;
51226;SDS011;42714;48.260;10.980;2023-10-19T12:57:23;6.4;;;2.1;;
51226;SDS011;42714;48.260;10.980;2023-10-19T13:02:23;8.4;;;2.4;;
51226;SDS011;42714;48.260;10.980;2023-10-19T13:07:23;5.3;;;2.0;;
51226;SDS011;42714;48.260;10.980;2023-10-19T13:12:23;6.8;;;2.2;;
51226;SDS011;42714;48.260;10.980;2023-10-19T13:17:23;6.3;;;2.3;;
51226;SDS011;42714;48.260;10.980;2023-10-19T13:22:23;6.7;;;2.2;;
51226;SDS011;42714;48.260;10.980;2023-10-19T13:27:23;8.9;;;2.3;;
51226;SDS011;42714;48.260;10.980;2023-10-19T13:32:23;5.8;;;1.8;;
51226;SDS011;42714;48.260;10.980;2023-10-19T13:37:23;7.1;;;2.2;;
51226;SDS011;42714;48.260;10.980;2023-10-19T13:42:23;3.6;;;1.9;;
51226;SDS011;42714;48.260;10.980;2023-10-19T13:47:23;13.9;;;2.6;;
51226;SDS011;42714;48.260;10.980;2023-10-19T13:52:23;7.2;;;1.8;;
51226;SDS011;42714;48.260;10.980;2023-10-19T13:57:23;6.3;;;1.9;;
51226;SDS011;42714;48.260;10.980;2023-10-19T14:02:23;6.8;;;2.2;;
51226;SDS011;42714;48.260;10.980;2023-10-19T14:07:23;9.4;;;4.4;;
51226;SDS011;42714;48.260;10.980;2023-10-19T14:12:23;7.6;;;3.9;;
51226;SDS011;42714;48.260;10.980;2023-10-19T14:17:23;6.8;;;2.9;;
51226;SDS011;42714;48.260;10.980;2023-10-19T14:22:23;10.2;;;4.3;;
51226;SDS011;42714;48.260;10.980;2023-10-19T14:27:23;10.5;;;3.7;;
51226;SDS011;42714;48.260;10.980;2023-10-19T14:32:23;12.1;;;6.2;;
51226;SDS011;42714;48.260;10.980;2023-10-19T14:37:23;18.4;;;5.7;;
51226;SDS011;42714;48.260;10.980;2023-10-19T14:42:23;9.1;;;3.8;;
51226;SDS011;42714;48.260;10.980;2023-10-19T14:47:23;9.2;;;3.1;;
51226;SDS011;42714;48.260;10.980;2023-10-19T14:52:23;7.5;;;3.5;;
51226;SDS011;42714;48.260;10.980;2023-10-19T14:57:23;8.0;;;3.5;;
51226;SDS011;42714;48.260;10.980;2023-10-19T15:02:23;7.6;;;3.6;;
51226;SDS011;42714;48.260;10.980;2023-10-19T15:07:23;7.6;;;2.1;;
51226;SDS011;42714;48.260;10.980;2023-10-19T15:12:23;6.9;;;3.4;;
51226;SDS011;42714;48.260;10.980;2023-10-19T15:17:23;8.1;;;3.7;;
51226;SDS011;42714;48.260;10.980;2023-10-19T15:22:23;5.8;;;3.2;;
51226;SDS011;42714;48.260;10.980;2023-10-19T15:27:23;10.5;;;4.4;;
51226;SDS011;42714;48.260;10.980;2023-10-19T15:32:23;8.9;;;4.4;;
51226;SDS011;42714;48.260;10.980;2023-10-19T15:37:23;12.9;;;5.3;;
51226;SDS011;42714;48.260;10.980;2023-10-19T15:42:23;11.8;;;4.1;;
51226;SDS011;42714;48.260;10.980;2023-10-19T15:47:23;9.5;;;3.9;;
51226;SDS011;42714;48.260;10.980;2023-10-19T15:52:23;9.0;;;4.9;;
51226;SDS011;42714;48.260;10.980;2023-10-19T15:57:23;19.9;;;7.3;;
51226;SDS011;42714;48.260;10.980;2023-10-19T16:02:23;11.7;;;5.6;;
51226;SDS011;42714;48.260;10.980;2023-10-19T16:07:23;16.4;;;9.3;;
51226;SDS011;42714;48.260;10.980;2023-10-19T16:12:23;13.7;;;8.3;;
51226;SDS011;42714;48.260;10.980;2023-10-19T16:17:23;13.7;;;8.2;;
51226;SDS011;42714;48.260;10.980;2023-10-19T16:22:23;16.8;;;9.8;;
51226;SDS011;42714;48.260;10.980;2023-10-19T16:27:23;21.5;;;13.3;;
51226;SDS011;42714;48.260;10.980;2023-10-19T16:32:23;27.0;;;15.0;;
51226;SDS011;42714;48.260;10.980;2023-10-19T16:37:23;26.9;;;16.4;;
51226;SDS011;42714;48.260;10.980;2023-10-19T16:42:23;29.0;;;17.0;;
51226;SDS011;42714;48.260;10.980;2023-10-19T16:47:23;34.9;;;21.0;;
51226;SDS011;42714;48.260;10.980;2023-10-19T16:52:23;33.9;;;19.4;;
51226;SDS011;42714;48.260;10.980;2023-10-19T16:57:23;36.4;;;20.4;;
51226;SDS011;42714;48.260;10.980;2023-10-19T17:02:23;33.5;;;23.2;;
51226;SDS011;42714;48.260;10.980;2023-10-19T17:07:23;28.2;;;16.8;;
51226;SDS011;42714;48.260;10.980;2023-10-19T17:12:23;23.2;;;14.2;;
51226;SDS011;42714;48.260;10.980;2023-10-19T17:17:23;27.2;;;16.2;;
51226;SDS011;42714;48.260;10.980;2023-10-19T17:22:23;33.3;;;21.8;;
51226;SDS011;42714;48.260;10.980;2023-10-19T17:27:23;65.8;;;34.4;;
51226;SDS011;42714;48.260;10.980;2023-10-19T17:32:23;55.0;;;30.9;;
51226;SDS011;42714;48.260;10.980;2023-10-19T17:37:23;29.5;;;17.4;;
51226;SDS011;42714;48.260;10.980;2023-10-19T17:42:23;23.4;;;13.8;;
51226;SDS011;42714;48.260;10.980;2023-10-19T17:47:23;19.6;;;12.6;;
51226;SDS011;42714;48.260;10.980;2023-10-19T17:52:23;19.5;;;12.4;;
51226;SDS011;42714;48.260;10.980;2023-10-19T17:57:24;25.1;;;15.6;;
51226;SDS011;42714;48.260;10.980;2023-10-19T18:02:23;32.6;;;19.5;;
51226;SDS011;42714;48.260;10.980;2023-10-19T18:07:23;28.0;;;18.8;;
51226;SDS011;42714;48.260;10.980;2023-10-19T18:12:23;32.4;;;18.9;;
51226;SDS011;42714;48.260;10.980;2023-10-19T18:17:23;34.4;;;20.8;;
51226;SDS011;42714;48.260;10.980;2023-10-19T18:22:23;38.9;;;22.3;;
51226;SDS011;42714;48.260;10.980;2023-10-19T18:27:23;47.4;;;25.7;;
51226;SDS011;42714;48.260;10.980;2023-10-19T18:32:23;45.0;;;27.7;;
51226;SDS011;42714;48.260;10.980;2023-10-19T18:37:23;48.7;;;28.8;;
51226;SDS011;42714;48.260;10.980;2023-10-19T18:42:23;49.9;;;29.0;;
51226;SDS011;42714;48.260;10.980;2023-10-19T18:47:23;45.5;;;28.3;;
51226;SDS011;42714;48.260;10.980;2023-10-19T18:52:23;49.9;;;29.0;;
51226;SDS011;42714;48.260;10.980;2023-10-19T18:57:23;58.7;;;31.3;;
51226;SDS011;42714;48.260;10.980;2023-10-19T19:02:23;62.8;;;32.1;;
51226;SDS011;42714;48.260;10.980;2023-10-19T19:07:23;62.5;;;36.9;;
51226;SDS011;42714;48.260;10.980;2023-10-19T19:12:23;66.7;;;38.0;;
51226;SDS011;42714;48.260;10.980;2023-10-19T19:17:23;61.8;;;35.5;;
51226;SDS011;42714;48.260;10.980;2023-10-19T19:22:23;60.0;;;35.6;;
51226;SDS011;42714;48.260;10.980;2023-10-19T19:27:23;53.5;;;31.8;;
51226;SDS011;42714;48.260;10.980;2023-10-19T19:32:23;52.8;;;31.0;;
51226;SDS011;42714;48.260;10.980;2023-10-19T19:37:23;61.3;;;32.8;;
51226;SDS011;42714;48.260;10.980;2023-10-19T19:42:23;50.7;;;32.0;;
51226;SDS011;42714;48.260;10.980;2023-10-19T19:47:23;56.5;;;32.8;;
51226;SDS011;42714;48.260;10.980;2023-10-19T19:52:23;60.2;;;34.9;;
51226;SDS011;42714;48.260;10.980;2023-10-19T19:57:23;58.2;;;32.9;;
51226;SDS011;42714;48.260;10.980;2023-10-19T20:02:23;63.1;;;36.0;;
51226;SDS011;42714;48.260;10.980;2023-10-19T20:07:23;65.9;;;41.9;;
51226;SDS011;42714;48.260;10.980;2023-10-19T20:12:23;74.1;;;41.9;;
51226;SDS011;42714;48.260;10.980;2023-10-19T20:17:23;68.6;;;40.3;;
51226;SDS011;42714;48.260;10.980;2023-10-19T20:22:23;68.0;;;36.0;;
51226;SDS011;42714;48.260;10.980;2023-10-19T20:27:24;55.2;;;32.3;;
51226;SDS011;42714;48.260;10.980;2023-10-19T20:32:23;58.9;;;34.4;;
51226;SDS011;42714;48.260;10.980;2023-10-19T20:37:23;63.0;;;35.6;;
51226;SDS011;42714;48.260;10.980;2023-10-19T20:42:23;66.9;;;37.2;;
51226;SDS011;42714;48.260;10.980;2023-10-19T20:47:23;63.0;;;34.8;;
51226;SDS011;42714;48.260;10.980;2023-10-19T20:52:23;54.5;;;30.2;;
51226;SDS011;42714;48.260;10.980;2023-10-19T20:57:23;53.9;;;29.7;;
51226;SDS011;42714;48.260;10.980;2023-10-19T21:02:23;61.4;;;34.6;;
51226;SDS011;42714;48.260;10.980;2023-10-19T21:07:23;61.4;;;33.8;;
51226;SDS011;42714;48.260;10.980;2023-10-19T21:12:23;52.9;;;31.8;;
51226;SDS011;42714;48.260;10.980;2023-10-19T21:17:23;55.4;;;33.4;;
51226;SDS011;42714;48.260;10.980;2023-10-19T21:22:23;57.4;;;34.4;;
51226;SDS011;42714;48.260;10.980;2023-10-19T21:27:23;63.0;;;35.8;;
51226;SDS011;42714;48.260;10.980;2023-10-19T21:32:23;67.7;;;36.7;;
51226;SDS011;42714;48.260;10.980;2023-10-19T21:37:23;72.5;;;37.1;;
51226;SDS011;42714;48.260;10.980;2023-10-19T21:42:23;66.0;;;34.2;;
51226;SDS011;42714;48.260;10.980;2023-10-19T21:47:23;67.7;;;37.2;;
51226;SDS011;42714;48.260;10.980;2023-10-19T21:52:23;69.4;;;36.0;;
51226;SDS011;42714;48.260;10.980;2023-10-19T21:57:23;69.5;;;35.7;;
51226;SDS011;42714;48.260;10.980;2023-10-19T22:02:23;69.0;;;36.4;;
51226;SDS011;42714;48.260;10.980;2023-10-19T22:07:23;70.1;;;38.0;;
51226;SDS011;42714;48.260;10.980;2023-10-19T22:12:23;73.7;;;38.6;;
51226;SDS011;42714;48.260;10.980;2023-10-19T22:17:23;68.2;;;37.5;;
51226;SDS011;42714;48.260;10.980;2023-10-19T22:22:23;75.5;;;39.2;;
51226;SDS011;42714;48.260;10.980;2023-10-19T22:27:23;82.0;;;40.7;;
51226;SDS011;42714;48.260;10.980;2023-10-19T22:32:23;90.2;;;43.1;;
51226;SDS011;42714;48.260;10.980;2023-10-19T22:37:24;90.5;;;42.7;;
51226;SDS011;42714;48.260;10.980;2023-10-19T22:42:23;81.2;;;41.8;;
51226;SDS011;42714;48.260;10.980;2023-10-19T22:47:23;81.8;;;41.4;;
51226;SDS011;42714;48.260;10.980;2023-10-19T22:52:23;60.0;;;33.1;;
51226;SDS011;42714;48.260;10.980;2023-10-19T22:57:23;63.1;;;35.0;;
51226;SDS011;42714;48.260;10.980;2023-10-19T23:02:24;65.0;;;34.8;;
51226;SDS011;42714;48.260;10.980;2023-10-19T23:07:23;61.0;;;30.7;;
51226;SDS011;42714;48.260;10.980;2023-10-19T23:12:23;63.7;;;35.6;;
51226;SDS011;42714;48.260;10.980;2023-10-19T23:17:23;50.3;;;27.6;;
51226;SDS011;42714;48.260;10.980;2023-10-19T23:22:24;56.7;;;30.8;;
51226;SDS011;42714;48.260;10.980;2023-10-19T23:27:23;52.9;;;30.4;;
51226;SDS011;42714;48.260;10.980;2023-10-19T23:32:23;52.5;;;31.3;;
51226;SDS011;42714;48.260;10.980;2023-10-19T23:37:23;58.4;;;32.3;;
51226;SDS011;42714;48.260;10.980;2023-10-19T23:42:23;42.9;;;26.7;;
51226;SDS011;42714;48.260;10.980;2023-10-19T23:47:23;47.6;;;26.8;;
51226;SDS011;42714;48.260;10.980;2023-10-19T23:52:23;43.0;;;24.2;;
51226;SDS011;42714;48.260;10.980;2023-10-19T23:57:23;41.9;;;26.4;;
